KTRI/TRI METAR and TAF weather

Enter ICAO airport designator
Station Type Date Time Source
KTRI METAR 2019/09/21 03:53 UTC NOAA

KTRI 210353Z 00000KT 10SM CLR 17/16 A3030 RMK AO2 SLP239 T01720156


Station Type Date Time Source
KTRI Decoded METAR 2019/09/21 03:53 UTC NOAA

TRI-CITY REGIONAL AIRPORT, TN, United States (KTRI) 36-28N 082-24W 474M
Sep 20, 2019 - 11:53 PM EDT / 2019.09.21 0353 UTC
Wind: Calm:0
Visibility: 10 mile(s):0
Sky conditions: clear
Temperature: 63.0 F (17.2 C)
Dew Point: 60.1 F (15.6 C)
Relative Humidity: 90%
Pressure (altimeter): 30.3 in. Hg (1026 hPa)
ob: KTRI 210353Z 00000KT 10SM CLR 17/16 A3030 RMK AO2 SLP239 T01720156
cycle: 4

Station Type Date Time Source
KTRI TAF 2019/09/20 18:22 UTC NOAA

TAF KTRI 201720Z 2018/2118 VRB03KT P6SM BKN045 BKN080
FM210200 00000KT P6SM FEW060
TEMPO 2109/2112 4SM BR
FM211200 VRB03KT P6SM SCT045

Example: see airport list